Time;durP1;ratioP1;P1;durP2;ratioP2;P2;SDS_P1;SDS_P2;PMS_P1;PMS_P2;Temp;Humidity;BMP_temperature;BMP_pressure;BME280_temperature;BME280_humidity;BME280_pressure;Samples;Min_cycle;Max_cycle;Signal;HPM_P1;HPM_P2
2022/04/10 00:00:35;;;;;;;11.38;2.28;;;;;;;;;;5048186;28;20041;-69
2022/04/10 00:03:02;;;;;;;12.57;2.25;;;;;;;;;;5053141;28;20114;-69
2022/04/10 00:05:28;;;;;;;9.93;2.15;;;;;;;;;;5052296;28;20067;-69
2022/04/10 00:07:54;;;;;;;11.10;2.13;;;;;;;;;;5054512;28;20037;-70
2022/04/10 00:10:20;;;;;;;8.52;2.00;;;;;;;;;;5051222;28;20084;-69
2022/04/10 00:12:46;;;;;;;14.85;2.42;;;;;;;;;;5082242;28;20489;-69
2022/04/10 00:15:12;;;;;;;12.40;2.78;;;;;;;;;;5045335;28;20493;-69
2022/04/10 00:17:41;;;;;;;12.98;2.35;;;;;;;;;;5044388;28;20051;-69
2022/04/10 00:20:09;;;;;;;17.52;2.47;;;;;;;;;;5064065;28;20040;-69
2022/04/10 00:22:46;;;;;;;12.27;2.10;;;;;;;;;;5047343;28;20063;-69
2022/04/10 00:25:13;;;;;;;10.98;2.22;;;;;;;;;;5051424;28;20069;-69
2022/04/10 00:27:40;;;;;;;12.45;2.20;;;;;;;;;;5050947;28;20037;-69
2022/04/10 00:30:06;;;;;;;15.52;2.72;;;;;;;;;;5047098;28;20112;-69
2022/04/10 00:32:32;;;;;;;9.60;1.90;;;;;;;;;;5059449;28;20490;-69
2022/04/10 00:34:58;;;;;;;14.52;2.42;;;;;;;;;;5052598;28;20141;-69
2022/04/10 00:37:25;;;;;;;13.70;2.40;;;;;;;;;;5043240;28;20056;-69
2022/04/10 00:39:51;;;;;;;10.38;2.28;;;;;;;;;;5049656;28;20037;-69
2022/04/10 00:42:17;;;;;;;12.80;2.20;;;;;;;;;;5064054;28;20037;-69
2022/04/10 00:44:43;;;;;;;8.38;1.92;;;;;;;;;;5037480;28;20378;-69
2022/04/10 00:47:12;;;;;;;11.68;2.30;;;;;;;;;;5050515;28;20550;-69
2022/04/10 00:49:38;;;;;;;14.05;2.15;;;;;;;;;;5084470;28;20428;-69
2022/04/10 00:52:06;;;;;;;15.77;2.70;;;;;;;;;;5053199;28;20041;-69
2022/04/10 00:54:34;;;;;;;12.77;2.35;;;;;;;;;;5051849;28;20049;-69
2022/04/10 00:57:01;;;;;;;8.98;2.10;;;;;;;;;;5052183;28;20492;-69
2022/04/10 00:59:27;;;;;;;16.27;2.58;;;;;;;;;;5051893;28;20041;-69
2022/04/10 01:01:54;;;;;;;12.90;2.30;;;;;;;;;;5050918;28;20083;-69
2022/04/10 01:04:20;;;;;;;11.15;2.47;;;;;;;;;;5046678;28;20090;-69
2022/04/10 01:06:54;;;;;;;10.75;2.35;;;;;;;;;;5051545;28;20120;-69
2022/04/10 01:09:20;;;;;;;10.15;2.80;;;;;;;;;;5049552;28;20045;-69
2022/04/10 01:11:46;;;;;;;12.98;2.25;;;;;;;;;;5052268;28;20045;-69
2022/04/10 01:14:13;;;;;;;7.45;2.05;;;;;;;;;;5050969;28;20102;-69
2022/04/10 01:16:39;;;;;;;10.90;2.20;;;;;;;;;;5052384;28;20052;-69
2022/04/10 01:19:06;;;;;;;13.10;2.40;;;;;;;;;;5052691;28;20049;-69
2022/04/10 01:21:33;;;;;;;15.27;2.20;;;;;;;;;;5053160;28;20049;-69
2022/04/10 01:23:59;;;;;;;13.25;2.60;;;;;;;;;;5053132;28;20090;-69
2022/04/10 01:26:26;;;;;;;13.65;2.28;;;;;;;;;;5050618;28;20513;-69
2022/04/10 01:29:12;;;;;;;13.43;2.65;;;;;;;;;;5052180;28;20048;-69
2022/04/10 01:31:40;;;;;;;12.75;2.28;;;;;;;;;;5050877;28;20458;-69
2022/04/10 01:34:10;;;;;;;14.40;2.28;;;;;;;;;;5051983;28;20127;-69
2022/04/10 01:36:37;;;;;;;17.52;2.30;;;;;;;;;;5051970;28;20045;-69
2022/04/10 01:39:05;;;;;;;9.02;2.47;;;;;;;;;;5051411;28;20596;-69
2022/04/10 01:41:31;;;;;;;14.57;2.83;;;;;;;;;;5051613;28;20611;-69
2022/04/10 01:43:58;;;;;;;13.98;2.35;;;;;;;;;;5046690;28;20497;-69
2022/04/10 01:46:26;;;;;;;16.17;2.60;;;;;;;;;;5050863;28;20045;-69
2022/04/10 01:48:53;;;;;;;12.02;2.38;;;;;;;;;;5063313;28;20068;-69
2022/04/10 01:51:19;;;;;;;10.77;2.00;;;;;;;;;;5050311;28;20063;-69
2022/04/10 01:53:45;;;;;;;12.60;2.20;;;;;;;;;;5048816;28;20041;-69
2022/04/10 01:56:11;;;;;;;14.63;2.78;;;;;;;;;;5049624;28;20049;-69
2022/04/10 01:58:38;;;;;;;12.73;2.20;;;;;;;;;;5050018;28;20091;-69
2022/04/10 02:01:05;;;;;;;10.10;2.08;;;;;;;;;;5053412;28;20116;-69
2022/04/10 02:03:31;;;;;;;11.57;2.50;;;;;;;;;;5049816;28;20099;-69
2022/04/10 02:05:57;;;;;;;8.35;1.80;;;;;;;;;;5040005;28;20468;-69
2022/04/10 02:08:24;;;;;;;7.60;2.00;;;;;;;;;;5033059;28;20094;-69
2022/04/10 02:10:50;;;;;;;14.10;2.90;;;;;;;;;;5050406;28;20094;-69
2022/04/10 02:13:16;;;;;;;9.88;2.33;;;;;;;;;;5050316;28;20073;-69
2022/04/10 02:15:42;;;;;;;13.00;3.08;;;;;;;;;;5047230;28;20116;-69
2022/04/10 02:18:08;;;;;;;18.55;3.13;;;;;;;;;;5049766;28;20156;-69
2022/04/10 02:20:34;;;;;;;12.75;2.30;;;;;;;;;;5028283;28;20442;-69
2022/04/10 02:23:00;;;;;;;13.93;2.75;;;;;;;;;;5049098;28;20455;-69
2022/04/10 02:25:26;;;;;;;15.13;2.65;;;;;;;;;;5046605;28;20486;-69
2022/04/10 02:27:52;;;;;;;13.88;2.53;;;;;;;;;;5049770;28;20071;-69
2022/04/10 02:30:18;;;;;;;17.27;2.53;;;;;;;;;;5049762;28;20118;-69
2022/04/10 02:32:45;;;;;;;11.45;2.33;;;;;;;;;;5050480;28;20041;-69
2022/04/10 02:35:11;;;;;;;12.32;2.78;;;;;;;;;;5047055;28;20064;-69
2022/04/10 02:37:37;;;;;;;16.05;2.67;;;;;;;;;;5048975;28;20134;-69
2022/04/10 02:40:04;;;;;;;8.35;2.35;;;;;;;;;;5048486;28;20064;-69
2022/04/10 02:42:33;;;;;;;13.13;2.05;;;;;;;;;;5048620;28;20069;-69
2022/04/10 02:44:59;;;;;;;11.52;2.20;;;;;;;;;;5046983;28;20507;-69
2022/04/10 02:47:25;;;;;;;15.73;2.17;;;;;;;;;;5043150;28;20206;-69
2022/04/10 02:49:51;;;;;;;11.90;2.47;;;;;;;;;;5045733;28;20044;-69
2022/04/10 02:52:17;;;;;;;13.40;2.28;;;;;;;;;;5048458;28;20669;-69
2022/04/10 02:54:44;;;;;;;10.40;2.13;;;;;;;;;;5048488;28;20041;-70
2022/04/10 02:57:10;;;;;;;12.32;2.25;;;;;;;;;;5052651;28;20460;-69
2022/04/10 02:59:37;;;;;;;9.20;2.08;;;;;;;;;;5049139;28;20603;-69
2022/04/10 03:02:03;;;;;;;9.57;2.05;;;;;;;;;;5043788;28;20079;-70
2022/04/10 03:04:29;;;;;;;10.00;2.47;;;;;;;;;;5048975;28;20180;-69
2022/04/10 03:06:55;;;;;;;13.27;2.25;;;;;;;;;;5040487;28;20539;-69
2022/04/10 03:09:21;;;;;;;8.55;2.40;;;;;;;;;;5045857;28;20544;-69
2022/04/10 03:11:47;;;;;;;8.75;2.00;;;;;;;;;;5046104;28;20120;-69
2022/04/10 03:14:14;;;;;;;11.10;2.30;;;;;;;;;;5048773;28;20146;-69
2022/04/10 03:16:40;;;;;;;11.23;2.15;;;;;;;;;;5047680;28;20109;-69
2022/04/10 03:19:06;;;;;;;9.65;2.15;;;;;;;;;;5045066;28;20119;-69
2022/04/10 03:21:32;;;;;;;11.40;1.90;;;;;;;;;;5044668;28;20045;-69
2022/04/10 03:23:58;;;;;;;8.75;1.83;;;;;;;;;;5080628;28;20041;-69
2022/04/10 03:26:24;;;;;;;9.10;2.15;;;;;;;;;;5050954;28;20056;-69
2022/04/10 03:28:50;;;;;;;8.85;2.05;;;;;;;;;;5051705;28;20118;-69
2022/04/10 03:31:16;;;;;;;9.63;2.20;;;;;;;;;;5050782;28;20119;-69
2022/04/10 03:33:42;;;;;;;11.65;2.08;;;;;;;;;;5052778;28;20037;-69
2022/04/10 03:36:08;;;;;;;9.68;1.85;;;;;;;;;;5046976;28;20068;-69
2022/04/10 03:38:34;;;;;;;9.60;1.95;;;;;;;;;;5052455;28;20079;-69
2022/04/10 03:41:00;;;;;;;7.57;1.92;;;;;;;;;;5052969;28;20029;-69
2022/04/10 03:43:26;;;;;;;8.00;1.67;;;;;;;;;;5054953;28;20052;-69
2022/04/10 03:45:52;;;;;;;10.05;1.85;;;;;;;;;;5052016;28;20068;-69
2022/04/10 03:48:18;;;;;;;11.07;1.73;;;;;;;;;;5053254;28;20041;-69
2022/04/10 03:50:44;;;;;;;7.57;1.90;;;;;;;;;;5051595;28;20041;-69
2022/04/10 03:53:11;;;;;;;7.65;1.70;;;;;;;;;;5046259;28;20037;-69
2022/04/10 03:55:37;;;;;;;9.20;1.77;;;;;;;;;;5051850;28;20495;-69
2022/04/10 03:58:03;;;;;;;5.45;1.45;;;;;;;;;;5050973;28;20082;-69
2022/04/10 04:00:29;;;;;;;7.97;1.33;;;;;;;;;;5036213;28;20047;-69
2022/04/10 04:02:55;;;;;;;3.45;1.23;;;;;;;;;;5052182;28;20040;-69
2022/04/10 04:05:21;;;;;;;6.43;1.00;;;;;;;;;;5053526;28;20037;-69
2022/04/10 04:07:47;;;;;;;5.85;1.40;;;;;;;;;;5049511;28;20127;-69
2022/04/10 04:10:13;;;;;;;7.15;1.33;;;;;;;;;;5053905;28;20045;-69
2022/04/10 04:12:39;;;;;;;3.92;1.45;;;;;;;;;;5051279;28;20493;-69
2022/04/10 04:15:06;;;;;;;3.90;1.33;;;;;;;;;;5052391;28;20374;-69
2022/04/10 04:17:32;;;;;;;5.95;1.73;;;;;;;;;;5035413;28;20044;-69
2022/04/10 04:19:58;;;;;;;8.95;1.60;;;;;;;;;;5042959;28;20037;-69
2022/04/10 04:22:24;;;;;;;5.47;1.38;;;;;;;;;;5057671;28;20126;-69
2022/04/10 04:24:50;;;;;;;7.45;1.63;;;;;;;;;;5043594;28;20052;-69
2022/04/10 04:27:16;;;;;;;8.65;1.63;;;;;;;;;;5053162;28;20578;-69
2022/04/10 04:29:42;;;;;;;8.70;1.92;;;;;;;;;;5066813;28;20119;-69
2022/04/10 04:32:08;;;;;;;5.45;1.60;;;;;;;;;;5047099;28;20045;-69
2022/04/10 04:34:34;;;;;;;4.13;1.30;;;;;;;;;;5051949;28;20037;-69
2022/04/10 04:37:00;;;;;;;6.43;1.27;;;;;;;;;;5048823;28;20440;-70
2022/04/10 04:39:27;;;;;;;5.03;1.20;;;;;;;;;;5049045;28;20127;-70
2022/04/10 04:41:53;;;;;;;8.43;1.55;;;;;;;;;;5053048;28;20442;-70
2022/04/10 04:44:19;;;;;;;6.28;1.38;;;;;;;;;;5047642;28;20080;-70
2022/04/10 04:46:45;;;;;;;6.15;1.23;;;;;;;;;;5053124;28;20112;-70
2022/04/10 04:49:11;;;;;;;4.28;1.20;;;;;;;;;;5053142;28;20493;-70
2022/04/10 04:51:37;;;;;;;5.00;1.20;;;;;;;;;;5044675;28;20373;-70
2022/04/10 04:54:03;;;;;;;6.20;1.25;;;;;;;;;;5036076;28;20501;-70
2022/04/10 04:56:30;;;;;;;6.95;1.55;;;;;;;;;;5049557;28;20076;-70
2022/04/10 04:58:56;;;;;;;7.55;1.35;;;;;;;;;;5050271;28;20507;-70
2022/04/10 05:01:22;;;;;;;4.47;1.40;;;;;;;;;;5052994;28;20493;-70
2022/04/10 05:03:51;;;;;;;4.22;1.20;;;;;;;;;;5048272;28;20051;-70
2022/04/10 05:06:17;;;;;;;8.05;1.48;;;;;;;;;;5045805;28;20063;-70
2022/04/10 05:08:46;;;;;;;5.93;1.35;;;;;;;;;;5047578;28;20041;-70
2022/04/10 05:11:13;;;;;;;5.22;1.20;;;;;;;;;;5040303;28;20037;-70
2022/04/10 05:13:39;;;;;;;3.55;1.00;;;;;;;;;;5062700;28;20056;-70
2022/04/10 05:16:05;;;;;;;4.88;1.40;;;;;;;;;;5050298;28;20125;-70
2022/04/10 05:18:32;;;;;;;3.47;1.10;;;;;;;;;;5042280;28;20049;-70
2022/04/10 05:20:58;;;;;;;3.65;1.10;;;;;;;;;;5046862;28;20520;-70
2022/04/10 05:23:24;;;;;;;5.00;1.10;;;;;;;;;;5041768;28;20516;-70
2022/04/10 05:25:50;;;;;;;3.83;1.17;;;;;;;;;;5037489;28;20125;-70
2022/04/10 05:28:17;;;;;;;4.60;1.00;;;;;;;;;;5052398;28;20090;-70
2022/04/10 05:30:43;;;;;;;3.78;1.27;;;;;;;;;;5057678;28;20029;-70
2022/04/10 05:33:10;;;;;;;3.22;0.82;;;;;;;;;;5050845;28;20132;-70
2022/04/10 05:35:36;;;;;;;3.47;0.90;;;;;;;;;;5049823;28;20052;-71
2022/04/10 05:38:02;;;;;;;4.07;1.33;;;;;;;;;;5050432;28;20116;-70
2022/04/10 05:40:28;;;;;;;3.70;1.00;;;;;;;;;;5049063;28;20486;-70
2022/04/10 05:42:54;;;;;;;5.30;1.52;;;;;;;;;;5050301;28;20052;-70
2022/04/10 05:45:20;;;;;;;6.50;1.42;;;;;;;;;;5047668;28;20114;-70
2022/04/10 05:47:46;;;;;;;3.47;0.95;;;;;;;;;;5077346;28;20052;-70
2022/04/10 05:50:13;;;;;;;4.22;1.20;;;;;;;;;;5043783;28;20037;-70
2022/04/10 05:52:40;;;;;;;3.80;1.33;;;;;;;;;;5046088;28;20041;-70
2022/04/10 05:55:09;;;;;;;4.68;1.70;;;;;;;;;;5048066;28;20041;-70
2022/04/10 05:57:36;;;;;;;5.45;1.17;;;;;;;;;;5042916;28;20048;-70
2022/04/10 06:00:04;;;;;;;5.20;1.20;;;;;;;;;;5050103;28;20037;-70
2022/04/10 06:02:30;;;;;;;4.40;1.20;;;;;;;;;;5047917;28;20041;-70
2022/04/10 06:04:57;;;;;;;3.95;1.10;;;;;;;;;;5050325;28;20167;-70
2022/04/10 06:07:23;;;;;;;4.97;1.17;;;;;;;;;;5049776;28;20567;-70
2022/04/10 06:09:49;;;;;;;4.57;1.13;;;;;;;;;;5043050;28;20029;-70
2022/04/10 06:12:15;;;;;;;4.28;1.35;;;;;;;;;;5047419;28;20041;-70
2022/04/10 06:14:41;;;;;;;3.17;0.90;;;;;;;;;;5046852;28;20059;-70
2022/04/10 06:17:07;;;;;;;3.72;1.17;;;;;;;;;;5049584;28;20124;-70
2022/04/10 06:19:34;;;;;;;3.05;0.95;;;;;;;;;;5050291;28;20033;-70
2022/04/10 06:22:00;;;;;;;2.90;0.82;;;;;;;;;;5045416;28;20041;-70
2022/04/10 06:24:27;;;;;;;3.90;1.40;;;;;;;;;;5050070;28;20041;-70
2022/04/10 06:26:53;;;;;;;3.80;1.02;;;;;;;;;;5050415;28;20076;-70
2022/04/10 06:29:19;;;;;;;4.38;1.25;;;;;;;;;;5054459;28;20108;-70
2022/04/10 06:31:46;;;;;;;6.85;1.05;;;;;;;;;;5049533;28;20047;-70
2022/04/10 06:34:12;;;;;;;3.15;0.93;;;;;;;;;;5041048;28;20154;-70
2022/04/10 06:36:38;;;;;;;4.20;1.00;;;;;;;;;;5045582;28;20041;-70
2022/04/10 06:39:04;;;;;;;2.47;0.70;;;;;;;;;;5045814;28;20539;-70
2022/04/10 06:41:31;;;;;;;3.72;1.10;;;;;;;;;;5048248;28;20477;-70
2022/04/10 06:43:57;;;;;;;4.88;1.40;;;;;;;;;;5020726;28;20060;-70
2022/04/10 06:46:23;;;;;;;4.57;1.15;;;;;;;;;;5048751;28;20037;-70
2022/04/10 06:48:50;;;;;;;4.45;1.38;;;;;;;;;;5048761;28;20123;-70
2022/04/10 06:51:19;;;;;;;3.33;1.05;;;;;;;;;;5048508;28;20385;-70
2022/04/10 06:53:45;;;;;;;4.72;1.05;;;;;;;;;;5049678;28;20049;-70
2022/04/10 06:56:11;;;;;;;3.78;1.10;;;;;;;;;;5048105;28;20124;-70
2022/04/10 06:58:37;;;;;;;4.90;1.17;;;;;;;;;;5047544;28;20041;-70
2022/04/10 07:01:03;;;;;;;3.85;1.35;;;;;;;;;;5049430;28;20037;-70
2022/04/10 07:03:29;;;;;;;9.13;2.08;;;;;;;;;;5047395;28;20505;-70
2022/04/10 07:05:55;;;;;;;8.80;1.80;;;;;;;;;;5046955;28;20072;-70
2022/04/10 07:08:21;;;;;;;5.97;1.88;;;;;;;;;;5047860;28;20515;-70
2022/04/10 07:10:47;;;;;;;6.53;1.35;;;;;;;;;;5045190;28;20037;-70
2022/04/10 07:13:17;;;;;;;10.63;1.30;;;;;;;;;;5047933;28;20049;-70
2022/04/10 07:15:44;;;;;;;5.55;1.17;;;;;;;;;;5047424;28;20080;-70
2022/04/10 07:18:11;;;;;;;6.65;1.50;;;;;;;;;;5048302;28;20095;-70
2022/04/10 07:20:37;;;;;;;7.40;1.77;;;;;;;;;;5047545;28;20464;-70
2022/04/10 07:25:48;;;;;;;5.88;1.50;;;;;;;;;;5048690;28;20169;-70
2022/04/10 07:28:14;;;;;;;10.35;1.88;;;;;;;;;;5046453;28;20094;-67
2022/04/10 07:30:40;;;;;;;6.70;1.27;;;;;;;;;;5048938;28;20060;-67
2022/04/10 07:33:07;;;;;;;5.85;1.27;;;;;;;;;;5081823;28;20045;-67
2022/04/10 07:35:34;;;;;;;4.95;1.35;;;;;;;;;;5048005;28;20049;-67
2022/04/10 07:38:00;;;;;;;5.38;1.33;;;;;;;;;;5045428;28;20037;-67
2022/04/10 07:40:26;;;;;;;8.30;1.80;;;;;;;;;;5042203;28;20073;-67
2022/04/10 07:42:53;;;;;;;5.45;1.35;;;;;;;;;;5043692;28;20037;-67
2022/04/10 07:48:04;;;;;;;10.05;1.75;;;;;;;;;;5034743;28;20056;-67
2022/04/10 07:50:30;;;;;;;6.63;1.48;;;;;;;;;;5039612;28;20064;-67
2022/04/10 07:52:56;;;;;;;7.75;1.60;;;;;;;;;;5027616;28;20045;-67
2022/04/10 07:55:25;;;;;;;6.95;1.55;;;;;;;;;;5043999;28;20052;-67
2022/04/10 07:57:51;;;;;;;4.80;1.73;;;;;;;;;;5049197;28;20072;-68
2022/04/10 08:00:17;;;;;;;7.70;1.80;;;;;;;;;;5025765;28;20044;-67
2022/04/10 08:02:47;;;;;;;10.82;1.80;;;;;;;;;;5044356;28;20489;-66
2022/04/10 08:05:17;;;;;;;8.45;1.70;;;;;;;;;;5046520;28;20037;-66
2022/04/10 08:07:44;;;;;;;10.43;2.28;;;;;;;;;;5084321;28;20033;-67
2022/04/10 08:10:11;;;;;;;7.32;1.40;;;;;;;;;;5043283;28;20580;-66
2022/04/10 08:12:37;;;;;;;8.32;1.65;;;;;;;;;;5052900;28;20056;-66
2022/04/10 08:15:04;;;;;;;11.80;1.90;;;;;;;;;;5051686;28;20040;-66
2022/04/10 08:17:30;;;;;;;7.53;1.73;;;;;;;;;;5042966;28;20088;-67
2022/04/10 08:19:56;;;;;;;10.68;1.95;;;;;;;;;;5043394;28;20140;-66
2022/04/10 08:22:26;;;;;;;8.07;1.95;;;;;;;;;;5052547;28;20049;-67
2022/04/10 08:24:52;;;;;;;9.05;1.77;;;;;;;;;;5053346;28;20129;-66
2022/04/10 08:27:19;;;;;;;8.50;1.65;;;;;;;;;;5046251;28;20095;-67
2022/04/10 08:29:45;;;;;;;10.38;1.70;;;;;;;;;;5053289;28;20099;-66
2022/04/10 08:32:11;;;;;;;8.43;1.60;;;;;;;;;;5051990;28;20051;-66
2022/04/10 08:34:37;;;;;;;10.30;1.50;;;;;;;;;;5052684;28;20131;-66
2022/04/10 08:37:06;;;;;;;7.07;1.80;;;;;;;;;;5039909;28;20041;-67
2022/04/10 08:39:32;;;;;;;9.15;1.55;;;;;;;;;;5051613;28;20082;-66
2022/04/10 08:42:03;;;;;;;7.18;2.00;;;;;;;;;;5047956;28;20049;-66
2022/04/10 08:44:29;;;;;;;6.53;1.80;;;;;;;;;;5047041;28;20057;-66
2022/04/10 08:46:56;;;;;;;7.85;2.28;;;;;;;;;;5045478;28;20484;-66
2022/04/10 08:49:25;;;;;;;9.77;1.63;;;;;;;;;;5033584;28;20416;-66
2022/04/10 08:51:52;;;;;;;7.93;1.85;;;;;;;;;;5045105;28;20397;-66
2022/04/10 08:54:19;;;;;;;9.65;1.55;;;;;;;;;;5045879;28;20048;-66
2022/04/10 08:56:45;;;;;;;6.88;1.60;;;;;;;;;;5033437;28;20773;-66
2022/04/10 08:59:11;;;;;;;8.10;1.80;;;;;;;;;;5046305;28;20056;-66
2022/04/10 09:01:37;;;;;;;10.48;1.40;;;;;;;;;;5050456;28;20041;-66
2022/04/10 09:04:04;;;;;;;7.05;1.65;;;;;;;;;;5045944;28;20266;-66
2022/04/10 09:06:30;;;;;;;8.15;1.92;;;;;;;;;;5076585;28;20083;-66
2022/04/10 09:09:18;;;;;;;8.20;1.90;;;;;;;;;;5053029;28;20467;-66
2022/04/10 09:11:44;;;;;;;7.40;1.45;;;;;;;;;;5031843;28;20393;-65
2022/04/10 09:14:11;;;;;;;8.65;1.80;;;;;;;;;;5043169;28;20044;-66
2022/04/10 09:16:37;;;;;;;8.50;1.90;;;;;;;;;;5043148;28;20045;-66
2022/04/10 09:19:10;;;;;;;8.32;1.58;;;;;;;;;;5050941;28;20055;-66
2022/04/10 09:21:37;;;;;;;7.13;1.70;;;;;;;;;;5050120;28;20037;-66
2022/04/10 09:24:10;;;;;;;7.40;1.45;;;;;;;;;;5042425;28;20056;-66
2022/04/10 09:26:50;;;;;;;8.80;1.95;;;;;;;;;;5041808;28;20076;-66
2022/04/10 09:29:17;;;;;;;14.70;2.05;;;;;;;;;;5082596;28;20045;-66
2022/04/10 09:31:43;;;;;;;7.15;1.60;;;;;;;;;;5042560;28;20506;-66
2022/04/10 09:34:11;;;;;;;5.13;1.30;;;;;;;;;;5042288;28;20128;-66
2022/04/10 09:36:37;;;;;;;5.18;1.65;;;;;;;;;;5049364;28;20377;-66
2022/04/10 09:39:08;;;;;;;7.63;1.48;;;;;;;;;;5048409;28;20955;-66
2022/04/10 09:41:34;;;;;;;7.63;1.50;;;;;;;;;;5039827;28;20048;-66
2022/04/10 09:44:01;;;;;;;8.88;1.83;;;;;;;;;;5043173;28;20061;-65
2022/04/10 09:46:27;;;;;;;6.10;1.40;;;;;;;;;;5049781;28;20037;-66
2022/04/10 09:48:53;;;;;;;5.90;1.42;;;;;;;;;;5052704;28;20498;-66
2022/04/10 09:51:19;;;;;;;7.28;1.58;;;;;;;;;;5049727;28;20040;-66
2022/04/10 09:54:01;;;;;;;4.63;1.55;;;;;;;;;;5045819;28;20038;-65
2022/04/10 09:56:28;;;;;;;7.13;1.50;;;;;;;;;;5050375;28;20045;-66
2022/04/10 09:58:56;;;;;;;6.15;1.65;;;;;;;;;;5045323;28;20401;-66
2022/04/10 10:01:22;;;;;;;9.00;1.55;;;;;;;;;;5047193;28;20037;-65
2022/04/10 10:03:49;;;;;;;6.47;1.40;;;;;;;;;;5058949;28;20048;-66
2022/04/10 10:06:16;;;;;;;4.72;1.40;;;;;;;;;;5066903;28;20041;-66
2022/04/10 10:08:42;;;;;;;8.45;1.70;;;;;;;;;;5050267;28;20045;-65
2022/04/10 10:11:08;;;;;;;7.30;2.08;;;;;;;;;;5040475;28;20063;-66
2022/04/10 10:13:37;;;;;;;9.27;1.63;;;;;;;;;;5038692;28;20099;-66
2022/04/10 10:16:04;;;;;;;6.53;1.85;;;;;;;;;;5039784;28;20102;-66
2022/04/10 10:18:30;;;;;;;4.80;1.30;;;;;;;;;;5047780;28;20056;-66
2022/04/10 10:20:56;;;;;;;5.18;1.45;;;;;;;;;;5046211;28;20041;-66
2022/04/10 10:23:22;;;;;;;7.03;1.80;;;;;;;;;;5050326;28;20045;-66
2022/04/10 10:26:02;;;;;;;7.53;1.40;;;;;;;;;;5049512;28;20037;-66
2022/04/10 10:28:55;;;;;;;5.10;1.30;;;;;;;;;;5049596;28;20061;-66
2022/04/10 10:31:40;;;;;;;7.00;1.67;;;;;;;;;;5040432;28;20055;-65
2022/04/10 10:34:07;;;;;;;6.10;1.48;;;;;;;;;;5053861;28;20393;-66
2022/04/10 10:36:34;;;;;;;6.35;1.33;;;;;;;;;;5050382;28;20444;-66
2022/04/10 10:39:00;;;;;;;4.90;1.60;;;;;;;;;;5049230;28;20056;-66
2022/04/10 10:41:26;;;;;;;7.68;1.52;;;;;;;;;;5044598;28;20038;-65
2022/04/10 10:43:52;;;;;;;5.45;1.23;;;;;;;;;;5045587;28;20131;-66
2022/04/10 10:46:36;;;;;;;4.05;1.55;;;;;;;;;;5043393;28;20048;-66
2022/04/10 10:49:16;;;;;;;5.65;1.35;;;;;;;;;;5039733;28;20039;-66
2022/04/10 10:51:45;;;;;;;8.25;1.40;;;;;;;;;;5050973;28;20049;-66
2022/04/10 10:54:13;;;;;;;5.50;1.30;;;;;;;;;;5048894;28;20029;-66
2022/04/10 10:56:43;;;;;;;3.75;1.10;;;;;;;;;;5048958;28;20040;-66
2022/04/10 10:59:20;;;;;;;5.00;1.25;;;;;;;;;;5047970;28;20480;-66
2022/04/10 11:02:04;;;;;;;3.67;1.15;;;;;;;;;;5047669;28;20083;-66
2022/04/10 11:04:35;;;;;;;6.72;1.65;;;;;;;;;;5040099;28;20041;-66
2022/04/10 11:07:13;;;;;;;7.32;1.50;;;;;;;;;;5065720;28;20111;-66
2022/04/10 11:10:02;;;;;;;4.05;1.20;;;;;;;;;;5049094;28;20032;-66
2022/04/10 11:12:55;;;;;;;10.90;1.50;;;;;;;;;;5067648;28;20093;-67
2022/04/10 11:15:22;;;;;;;3.20;1.15;;;;;;;;;;5078584;28;20538;-66
2022/04/10 11:17:49;;;;;;;7.72;1.60;;;;;;;;;;5047418;28;20114;-66
2022/04/10 11:20:16;;;;;;;5.05;1.30;;;;;;;;;;5043668;28;20033;-66
2022/04/10 11:22:54;;;;;;;9.00;1.63;;;;;;;;;;5043431;28;20061;-66
2022/04/10 11:25:21;;;;;;;6.32;1.45;;;;;;;;;;5046117;28;20045;-66
2022/04/10 11:28:04;;;;;;;7.18;1.33;;;;;;;;;;5045108;28;20449;-66
2022/04/10 11:30:30;;;;;;;6.03;1.30;;;;;;;;;;5041988;28;20042;-60
2022/04/10 11:32:59;;;;;;;5.15;1.20;;;;;;;;;;5044358;28;20048;-66
2022/04/10 11:35:27;;;;;;;5.15;0.90;;;;;;;;;;5032410;28;20041;-66
2022/04/10 11:37:54;;;;;;;3.40;1.10;;;;;;;;;;5046096;28;20033;-65
2022/04/10 11:40:21;;;;;;;5.28;1.08;;;;;;;;;;5042589;28;20834;-66
2022/04/10 11:42:47;;;;;;;4.20;1.20;;;;;;;;;;5041833;28;20048;-66
2022/04/10 11:45:13;;;;;;;5.28;1.02;;;;;;;;;;5044210;28;20362;-66
2022/04/10 11:47:42;;;;;;;6.53;1.05;;;;;;;;;;5051850;28;20045;-66
2022/04/10 11:50:11;;;;;;;4.57;0.95;;;;;;;;;;5045280;28;20037;-66
2022/04/10 11:52:38;;;;;;;4.82;1.17;;;;;;;;;;5045905;28;20049;-66
2022/04/10 11:55:08;;;;;;;3.92;1.13;;;;;;;;;;5054371;28;20045;-66
2022/04/10 11:57:37;;;;;;;4.95;1.20;;;;;;;;;;5052230;28;20076;-66
2022/04/10 12:00:06;;;;;;;4.75;1.15;;;;;;;;;;5045904;28;20048;-66
2022/04/10 12:02:32;;;;;;;7.38;1.38;;;;;;;;;;5045250;28;20492;-66
2022/04/10 12:05:00;;;;;;;5.97;1.48;;;;;;;;;;5052164;28;20071;-66
2022/04/10 12:07:26;;;;;;;4.18;1.23;;;;;;;;;;5060907;28;20065;-66
2022/04/10 12:09:52;;;;;;;6.40;1.38;;;;;;;;;;5080420;28;20041;-66
2022/04/10 12:12:20;;;;;;;4.00;1.20;;;;;;;;;;5053751;28;20084;-66
2022/04/10 12:14:49;;;;;;;4.53;1.00;;;;;;;;;;5045246;28;20539;-66
2022/04/10 12:17:19;;;;;;;7.18;1.65;;;;;;;;;;5055261;28;20049;-66
2022/04/10 12:19:45;;;;;;;4.60;1.15;;;;;;;;;;5044161;28;20049;-66
2022/04/10 12:22:12;;;;;;;5.93;1.23;;;;;;;;;;5060591;28;20084;-66
2022/04/10 12:24:38;;;;;;;8.00;1.45;;;;;;;;;;5063935;28;20041;-66
2022/04/10 12:27:09;;;;;;;4.53;1.40;;;;;;;;;;5045284;28;20045;-66
2022/04/10 12:29:36;;;;;;;8.45;1.85;;;;;;;;;;5043886;28;20044;-66
2022/04/10 12:32:03;;;;;;;5.13;1.10;;;;;;;;;;5041946;28;20041;-66
2022/04/10 12:34:36;;;;;;;5.80;1.40;;;;;;;;;;5050442;28;20124;-66
2022/04/10 12:37:12;;;;;;;6.22;1.25;;;;;;;;;;5054953;28;20401;-65
2022/04/10 12:39:38;;;;;;;7.03;1.40;;;;;;;;;;5052563;28;20537;-66
2022/04/10 12:42:07;;;;;;;4.53;1.25;;;;;;;;;;5067428;28;20128;-66
2022/04/10 12:44:34;;;;;;;3.00;1.00;;;;;;;;;;5052758;28;20048;-66
2022/04/10 12:47:01;;;;;;;4.45;1.40;;;;;;;;;;5035875;28;20055;-66
2022/04/10 12:49:27;;;;;;;5.35;1.52;;;;;;;;;;5043357;28;20041;-66
2022/04/10 12:51:59;;;;;;;8.35;1.23;;;;;;;;;;5043282;28;20131;-66
2022/04/10 12:54:39;;;;;;;6.03;1.27;;;;;;;;;;5050076;28;20119;-66
2022/04/10 12:57:06;;;;;;;3.95;1.33;;;;;;;;;;5050377;28;20401;-66
2022/04/10 12:59:36;;;;;;;5.72;1.20;;;;;;;;;;5038487;28;20064;-65
2022/04/10 13:02:02;;;;;;;3.28;0.95;;;;;;;;;;5046246;28;20136;-65
2022/04/10 13:04:31;;;;;;;3.03;1.20;;;;;;;;;;5069561;28;20041;-65
2022/04/10 13:06:57;;;;;;;5.32;1.10;;;;;;;;;;5048525;28;20041;-66
2022/04/10 13:09:24;;;;;;;5.60;1.38;;;;;;;;;;5042146;28;20040;-66
2022/04/10 13:11:50;;;;;;;3.22;1.00;;;;;;;;;;5047454;28;20037;-66
2022/04/10 13:14:16;;;;;;;4.82;1.08;;;;;;;;;;5094702;28;20044;-65
2022/04/10 13:16:43;;;;;;;4.00;1.10;;;;;;;;;;5052699;28;20048;-66
2022/04/10 13:19:11;;;;;;;5.10;1.45;;;;;;;;;;5052784;28;20048;-66
2022/04/10 13:21:38;;;;;;;5.05;1.17;;;;;;;;;;5053483;28;20044;-66
2022/04/10 13:24:05;;;;;;;3.63;1.08;;;;;;;;;;5053654;28;20094;-65
2022/04/10 13:26:32;;;;;;;4.65;0.95;;;;;;;;;;5042878;28;20037;-65
2022/04/10 13:29:02;;;;;;;1.92;0.82;;;;;;;;;;5046120;28;20123;-66
2022/04/10 13:31:28;;;;;;;5.10;1.05;;;;;;;;;;5024979;28;20386;-66
2022/04/10 13:33:55;;;;;;;3.53;1.15;;;;;;;;;;5053308;28;20040;-66
2022/04/10 13:36:21;;;;;;;5.38;1.20;;;;;;;;;;5047614;28;20045;-66
2022/04/10 13:38:47;;;;;;;4.65;0.85;;;;;;;;;;5041644;28;20053;-65
2022/04/10 13:41:13;;;;;;;3.28;0.90;;;;;;;;;;5042194;28;20046;-65
2022/04/10 13:43:40;;;;;;;2.95;0.80;;;;;;;;;;5051636;28;20037;-66
2022/04/10 13:46:06;;;;;;;3.10;0.80;;;;;;;;;;5052895;28;20045;-66
2022/04/10 13:48:32;;;;;;;3.65;0.90;;;;;;;;;;5051957;28;20049;-65
2022/04/10 13:50:58;;;;;;;3.03;0.82;;;;;;;;;;5043436;28;20470;-66
2022/04/10 13:53:24;;;;;;;4.25;0.80;;;;;;;;;;5042500;28;20049;-66
2022/04/10 13:55:51;;;;;;;2.72;0.88;;;;;;;;;;5051564;28;20503;-66
2022/04/10 13:58:17;;;;;;;4.07;1.00;;;;;;;;;;5042525;28;20041;-66
2022/04/10 14:00:43;;;;;;;4.65;1.20;;;;;;;;;;5043912;28;20037;-66
2022/04/10 14:03:09;;;;;;;3.53;0.70;;;;;;;;;;5050931;28;20040;-66
2022/04/10 14:05:35;;;;;;;3.53;0.80;;;;;;;;;;5041351;28;20053;-66
2022/04/10 14:08:01;;;;;;;4.10;0.88;;;;;;;;;;5051771;28;20036;-65
2022/04/10 14:10:27;;;;;;;1.73;0.70;;;;;;;;;;5031769;28;20041;-66
2022/04/10 14:12:54;;;;;;;3.22;1.00;;;;;;;;;;5045650;28;20037;-66
2022/04/10 14:15:20;;;;;;;4.88;0.90;;;;;;;;;;5051317;28;20132;-65
2022/04/10 14:17:46;;;;;;;3.90;1.08;;;;;;;;;;5051195;28;20041;-65
2022/04/10 14:20:12;;;;;;;5.40;0.95;;;;;;;;;;5024995;28;20044;-66
2022/04/10 14:22:38;;;;;;;2.83;1.10;;;;;;;;;;5045017;28;20505;-65
2022/04/10 14:25:04;;;;;;;2.85;0.80;;;;;;;;;;5044838;28;20500;-65
2022/04/10 14:27:30;;;;;;;3.65;1.10;;;;;;;;;;5041118;28;20107;-65
2022/04/10 14:29:56;;;;;;;3.08;0.90;;;;;;;;;;5048752;28;20045;-65
2022/04/10 14:32:23;;;;;;;1.83;0.88;;;;;;;;;;5051066;28;20124;-66
2022/04/10 14:34:49;;;;;;;3.63;0.98;;;;;;;;;;5052609;28;20049;-66
2022/04/10 14:37:15;;;;;;;5.60;1.15;;;;;;;;;;5050280;28;20048;-66
2022/04/10 14:39:41;;;;;;;4.10;1.00;;;;;;;;;;5042823;28;20080;-65
2022/04/10 14:42:07;;;;;;;4.63;1.08;;;;;;;;;;5034365;28;20041;-66
2022/04/10 14:44:33;;;;;;;4.68;1.13;;;;;;;;;;5051631;28;20044;-66
2022/04/10 14:47:03;;;;;;;4.35;1.25;;;;;;;;;;5051733;28;20405;-67